Time;durP1;ratioP1;P1;durP2;ratioP2;P2;SDS_P1;SDS_P2;PMS_P1;PMS_P2;Temp;Humidity;BMP_temperature;BMP_pressure;BME280_temperature;BME280_humidity;BME280_pressure;Samples;Min_cycle;Max_cycle;Signal;HPM_P1;HPM_P2
2021/01/15 00:02:21;;;;;;;13.15;8.30;;;0.40;99.90;;;;;;4986972;28;20034;-87
2021/01/15 00:04:46;;;;;;;13.20;7.40;;;0.30;99.90;;;;;;4994098;28;20491;-87
2021/01/15 00:07:12;;;;;;;12.90;8.32;;;0.30;99.90;;;;;;4975676;28;20030;-87
2021/01/15 00:09:37;;;;;;;15.25;8.38;;;0.30;99.90;;;;;;4974877;28;20081;-88
2021/01/15 00:12:03;;;;;;;12.27;7.93;;;0.30;99.90;;;;;;4974420;28;20033;-86
2021/01/15 00:14:29;;;;;;;13.57;8.50;;;0.30;99.90;;;;;;4973973;28;20516;-86
2021/01/15 00:16:55;;;;;;;13.50;8.20;;;0.30;99.90;;;;;;4975377;28;20385;-87
2021/01/15 00:19:21;;;;;;;13.00;8.68;;;0.20;99.90;;;;;;4994108;28;20095;-87
2021/01/15 00:21:48;;;;;;;12.05;8.70;;;0.30;99.90;;;;;;5003507;28;20170;-88
2021/01/15 00:24:18;;;;;;;12.48;8.25;;;0.30;99.90;;;;;;4974350;28;20547;-87
2021/01/15 00:26:44;;;;;;;12.43;8.45;;;0.30;99.90;;;;;;4974436;28;20577;-89
2021/01/15 00:29:15;;;;;;;12.88;8.93;;;0.40;99.90;;;;;;4975269;28;20496;-88
2021/01/15 00:31:42;;;;;;;11.40;8.15;;;0.40;99.90;;;;;;4995841;28;20826;-87
2021/01/15 00:34:10;;;;;;;11.13;7.57;;;0.40;99.90;;;;;;4985061;28;20121;-89
2021/01/15 00:36:37;;;;;;;13.82;8.30;;;0.50;99.90;;;;;;4979830;28;20113;-88
2021/01/15 00:39:08;;;;;;;11.90;7.50;;;0.60;99.90;;;;;;4989584;28;20091;-88
2021/01/15 00:41:38;;;;;;;10.40;7.25;;;0.60;99.90;;;;;;4980557;28;20030;-87
2021/01/15 00:44:05;;;;;;;11.15;7.07;;;0.60;99.90;;;;;;5011351;28;20040;-87
2021/01/15 00:46:31;;;;;;;13.43;8.05;;;0.60;99.90;;;;;;4993894;28;20037;-86
2021/01/15 00:49:05;;;;;;;14.00;8.20;;;0.70;99.90;;;;;;4992359;28;20579;-87
2021/01/15 00:51:32;;;;;;;11.68;7.50;;;0.70;99.90;;;;;;4979682;28;20033;-87
2021/01/15 00:53:58;;;;;;;12.23;7.50;;;0.80;99.90;;;;;;5010845;28;20117;-87
2021/01/15 00:56:24;;;;;;;12.20;7.85;;;0.80;99.90;;;;;;4993548;28;20037;-86
2021/01/15 00:58:52;;;;;;;10.85;7.10;;;0.80;99.90;;;;;;4994222;28;20030;-85
2021/01/15 01:01:19;;;;;;;10.65;7.05;;;0.80;99.90;;;;;;4996750;28;20034;-87
2021/01/15 01:03:46;;;;;;;10.38;6.70;;;0.80;99.90;;;;;;4960225;28;20465;-86
2021/01/15 01:06:22;;;;;;;9.73;6.13;;;0.90;99.90;;;;;;4981128;28;20030;-87
2021/01/15 01:08:49;;;;;;;10.20;6.22;;;0.90;99.90;;;;;;4998989;28;20081;-86
2021/01/15 01:11:22;;;;;;;11.98;6.70;;;0.90;99.90;;;;;;4970650;28;20025;-86
2021/01/15 01:13:53;;;;;;;9.77;6.45;;;1.00;99.90;;;;;;4997772;28;20050;-89
2021/01/15 01:16:19;;;;;;;10.38;6.53;;;0.90;99.90;;;;;;4998737;28;20069;-88
2021/01/15 01:18:46;;;;;;;9.63;6.38;;;1.00;99.90;;;;;;4973779;28;20136;-87
2021/01/15 01:21:12;;;;;;;9.90;6.32;;;1.00;99.90;;;;;;5004134;28;20061;-89
2021/01/15 01:23:38;;;;;;;9.73;6.22;;;1.00;99.90;;;;;;4977076;28;20058;-88
2021/01/15 01:26:04;;;;;;;9.80;6.55;;;1.00;99.90;;;;;;4977195;28;20027;-88
2021/01/15 01:28:30;;;;;;;12.40;7.57;;;1.00;99.90;;;;;;4977086;28;20126;-88
2021/01/15 01:30:55;;;;;;;12.10;7.15;;;1.00;99.90;;;;;;4989899;28;20150;-88
2021/01/15 01:33:21;;;;;;;10.57;6.97;;;1.00;99.90;;;;;;4995800;28;20058;-90
2021/01/15 01:35:47;;;;;;;11.98;7.38;;;1.10;99.90;;;;;;4995753;28;20037;-89
2021/01/15 01:38:13;;;;;;;11.63;7.28;;;1.00;99.90;;;;;;4995604;28;20029;-87
2021/01/15 01:40:39;;;;;;;12.38;7.88;;;1.10;99.90;;;;;;4995493;28;20037;-88
2021/01/15 01:43:05;;;;;;;11.15;7.15;;;1.10;99.90;;;;;;4995850;28;20037;-88
2021/01/15 01:45:30;;;;;;;11.27;7.50;;;1.10;99.90;;;;;;4996032;28;20049;-88
2021/01/15 01:47:58;;;;;;;13.45;8.38;;;1.10;99.90;;;;;;4996081;28;20096;-88
2021/01/15 01:50:24;;;;;;;10.90;7.40;;;1.10;99.90;;;;;;4997125;28;20058;-87
2021/01/15 01:52:50;;;;;;;13.55;8.20;;;1.10;99.90;;;;;;5000112;28;20033;-87
2021/01/15 01:55:18;;;;;;;11.95;8.07;;;1.10;99.90;;;;;;5000260;28;20029;-87
2021/01/15 01:57:44;;;;;;;11.63;8.13;;;1.10;99.90;;;;;;5000105;28;20384;-88
2021/01/15 02:00:10;;;;;;;11.38;7.35;;;1.00;99.90;;;;;;4999267;28;20136;-88
2021/01/15 02:02:36;;;;;;;12.13;8.05;;;1.00;99.90;;;;;;4999350;28;20030;-87
2021/01/15 02:05:03;;;;;;;12.75;7.78;;;1.00;99.90;;;;;;5011997;28;20030;-88
2021/01/15 02:07:28;;;;;;;10.27;7.13;;;1.00;99.90;;;;;;4992470;28;20084;-87
2021/01/15 02:10:06;;;;;;;10.25;7.07;;;1.00;99.90;;;;;;5016948;28;20494;-86
2021/01/15 02:12:31;;;;;;;11.13;7.25;;;1.00;99.90;;;;;;4989897;28;20026;-85
2021/01/15 02:15:23;;;;;;;12.85;7.82;;;1.00;99.90;;;;;;4999818;28;20052;-87
2021/01/15 02:17:59;;;;;;;11.38;7.68;;;1.00;99.90;;;;;;4984644;28;20041;-86
2021/01/15 02:20:27;;;;;;;10.55;7.43;;;1.00;99.90;;;;;;4999040;28;20029;-86
2021/01/15 02:23:12;;;;;;;13.85;7.88;;;1.00;99.90;;;;;;4995887;28;20042;-86
2021/01/15 02:26:08;;;;;;;14.38;8.93;;;1.00;99.90;;;;;;5000508;28;20038;-86
2021/01/15 02:29:12;;;;;;;11.43;7.50;;;1.00;99.90;;;;;;4980456;28;20603;-88
2021/01/15 02:31:49;;;;;;;12.68;8.38;;;1.00;99.90;;;;;;5014992;28;20053;-88
2021/01/15 02:34:52;;;;;;;11.23;7.45;;;1.00;99.90;;;;;;5016990;28;20033;-87
2021/01/15 02:37:21;;;;;;;15.27;8.40;;;1.00;99.90;;;;;;5013600;28;20038;-87
2021/01/15 02:40:10;;;;;;;12.90;7.97;;;1.00;99.90;;;;;;4999105;28;20038;-87
2021/01/15 02:42:40;;;;;;;13.00;8.25;;;1.00;99.90;;;;;;4998761;28;20476;-87
2021/01/15 02:45:11;;;;;;;12.30;7.97;;;1.00;99.90;;;;;;4993396;28;20041;-88
2021/01/15 02:47:50;;;;;;;12.63;8.35;;;1.00;99.90;;;;;;4987392;28;20058;-89
2021/01/15 02:50:19;;;;;;;13.52;8.88;;;1.00;99.90;;;;;;4997741;28;20046;-85
2021/01/15 02:52:46;;;;;;;12.50;8.30;;;1.00;99.90;;;;;;5016171;28;20030;-88
2021/01/15 02:55:12;;;;;;;12.45;7.75;;;1.10;99.90;;;;;;4997419;28;20034;-87
2021/01/15 02:57:38;;;;;;;13.20;8.77;;;1.00;99.90;;;;;;5014937;28;20037;-86
2021/01/15 03:00:10;;;;;;;14.88;10.18;;;1.00;99.90;;;;;;5015355;28;20581;-86
2021/01/15 03:02:45;;;;;;;13.57;9.27;;;1.00;99.90;;;;;;4997200;28;20112;-86
2021/01/15 03:05:21;;;;;;;13.40;8.68;;;1.00;99.90;;;;;;4997139;28;20097;-87
2021/01/15 03:07:50;;;;;;;13.90;9.38;;;1.00;99.90;;;;;;4997352;28;20041;-86
2021/01/15 03:10:23;;;;;;;13.95;9.32;;;1.10;99.90;;;;;;5015596;28;20097;-86
2021/01/15 03:12:50;;;;;;;14.30;10.05;;;1.00;99.90;;;;;;4998519;28;20034;-86
2021/01/15 03:15:18;;;;;;;13.52;9.43;;;1.00;99.90;;;;;;5015983;28;20040;-87
2021/01/15 03:17:47;;;;;;;13.80;9.27;;;1.00;99.90;;;;;;5015935;28;20030;-87
2021/01/15 03:20:13;;;;;;;14.07;9.35;;;1.00;99.90;;;;;;4998028;28;20121;-87
2021/01/15 03:22:39;;;;;;;12.15;8.23;;;1.00;99.90;;;;;;4998243;28;20034;-87
2021/01/15 03:25:05;;;;;;;14.25;8.82;;;1.00;99.90;;;;;;4998103;28;20388;-88
2021/01/15 03:27:51;;;;;;;13.45;8.43;;;1.10;99.90;;;;;;5015364;28;20034;-87
2021/01/15 03:30:22;;;;;;;12.52;8.90;;;1.10;99.90;;;;;;4997498;28;20054;-88
2021/01/15 03:32:50;;;;;;;14.80;9.15;;;1.10;99.90;;;;;;4997898;28;20103;-86
2021/01/15 03:35:22;;;;;;;12.98;8.30;;;1.10;99.90;;;;;;5015325;28;20084;-88
2021/01/15 03:38:04;;;;;;;13.93;9.43;;;1.10;99.90;;;;;;5015433;28;20030;-88
2021/01/15 03:40:35;;;;;;;16.92;10.27;;;1.10;99.90;;;;;;4997605;28;20046;-87
2021/01/15 03:43:09;;;;;;;16.38;9.65;;;1.00;99.90;;;;;;5015479;28;20034;-87
2021/01/15 03:45:35;;;;;;;16.50;10.60;;;1.10;99.90;;;;;;5015290;28;20041;-88
2021/01/15 03:48:02;;;;;;;15.40;9.75;;;1.10;99.90;;;;;;4997584;28;20026;-87
2021/01/15 03:50:27;;;;;;;17.33;10.20;;;1.00;99.90;;;;;;5014954;28;20046;-88
2021/01/15 03:52:53;;;;;;;17.38;11.18;;;1.10;99.90;;;;;;4997488;28;20089;-87
2021/01/15 03:55:18;;;;;;;15.50;10.40;;;1.10;99.90;;;;;;5015003;28;20034;-87
2021/01/15 03:57:45;;;;;;;16.45;10.70;;;1.10;99.90;;;;;;4997950;28;20460;-87
2021/01/15 04:00:11;;;;;;;15.13;9.90;;;1.10;99.90;;;;;;4997764;28;20073;-87
2021/01/15 04:02:37;;;;;;;17.63;11.43;;;1.10;99.90;;;;;;5015197;28;20484;-87
2021/01/15 04:05:03;;;;;;;17.05;10.57;;;1.00;99.90;;;;;;4997598;28;20032;-89
2021/01/15 04:07:29;;;;;;;16.38;10.98;;;1.10;99.90;;;;;;5014981;28;20044;-87
2021/01/15 04:09:56;;;;;;;15.35;10.32;;;1.10;99.90;;;;;;4996946;28;20081;-87
2021/01/15 04:12:23;;;;;;;15.48;9.95;;;1.10;99.90;;;;;;4997316;28;20079;-88
2021/01/15 04:14:49;;;;;;;15.30;10.95;;;1.10;99.90;;;;;;4996323;28;20030;-88
2021/01/15 04:17:15;;;;;;;14.82;9.65;;;1.10;99.90;;;;;;5014599;28;20041;-88
2021/01/15 04:19:40;;;;;;;15.65;10.30;;;1.10;99.90;;;;;;4997034;28;20053;-89
2021/01/15 04:22:06;;;;;;;17.90;10.40;;;1.10;99.90;;;;;;5014464;28;20522;-89
2021/01/15 04:24:31;;;;;;;19.65;10.68;;;1.10;99.90;;;;;;4997392;28;20033;-89
2021/01/15 04:26:58;;;;;;;16.92;11.18;;;1.10;99.90;;;;;;5014373;28;20116;-89
2021/01/15 04:29:24;;;;;;;16.40;9.98;;;1.10;99.90;;;;;;4996979;28;20041;-87
2021/01/15 04:31:50;;;;;;;17.05;10.15;;;1.10;99.90;;;;;;5014312;28;20066;-89
2021/01/15 04:34:16;;;;;;;17.67;11.15;;;1.10;99.90;;;;;;5014288;28;20595;-89
2021/01/15 04:36:42;;;;;;;18.38;11.13;;;1.10;99.90;;;;;;4996808;28;20443;-88
2021/01/15 04:39:09;;;;;;;24.27;12.60;;;1.10;99.90;;;;;;5014732;28;20116;-88
2021/01/15 04:41:35;;;;;;;18.88;11.38;;;1.10;99.90;;;;;;4997029;28;20388;-88
2021/01/15 04:44:01;;;;;;;18.10;12.48;;;1.10;99.90;;;;;;5014617;28;20038;-88
2021/01/15 04:46:28;;;;;;;17.65;11.57;;;1.10;99.90;;;;;;4997158;28;20089;-89
2021/01/15 04:48:55;;;;;;;16.83;11.20;;;1.10;99.90;;;;;;4997447;28;20034;-88
2021/01/15 04:51:25;;;;;;;19.60;11.90;;;1.10;99.90;;;;;;4996805;28;20488;-88
2021/01/15 04:54:04;;;;;;;21.35;12.70;;;1.10;99.90;;;;;;4997596;28;20430;-89
2021/01/15 04:56:39;;;;;;;15.18;11.27;;;1.10;99.90;;;;;;5017059;28;20034;-88
2021/01/15 04:59:08;;;;;;;20.55;12.68;;;1.10;99.90;;;;;;5021563;28;20017;-86
2021/01/15 05:01:38;;;;;;;17.02;11.07;;;1.10;99.90;;;;;;5021210;28;20018;-90
2021/01/15 05:04:16;;;;;;;17.33;10.35;;;1.10;99.90;;;;;;5017433;28;20045;-85
2021/01/15 05:06:48;;;;;;;16.42;11.68;;;1.10;99.90;;;;;;5005804;28;20030;-87
2021/01/15 05:09:24;;;;;;;18.65;11.27;;;1.10;99.90;;;;;;5020227;28;20049;-86
2021/01/15 05:11:52;;;;;;;20.10;11.95;;;1.10;99.90;;;;;;5007331;28;20049;-86
2021/01/15 05:14:19;;;;;;;18.40;11.73;;;1.10;99.90;;;;;;5014355;28;20038;-86
2021/01/15 05:16:48;;;;;;;18.40;11.93;;;1.00;99.90;;;;;;4996916;28;20062;-87
2021/01/15 05:19:14;;;;;;;18.83;10.60;;;1.10;99.90;;;;;;4996825;28;20488;-87
2021/01/15 05:21:41;;;;;;;17.05;10.82;;;1.10;99.90;;;;;;4996524;28;20116;-87
2021/01/15 05:24:08;;;;;;;17.27;10.70;;;1.10;99.90;;;;;;4996636;28;20061;-87
2021/01/15 05:26:35;;;;;;;16.67;10.70;;;1.10;99.90;;;;;;5018167;28;20037;-87
2021/01/15 05:29:02;;;;;;;15.55;9.80;;;1.10;99.90;;;;;;5001119;28;20452;-86
2021/01/15 05:31:28;;;;;;;15.18;10.05;;;1.10;99.90;;;;;;5000352;28;20046;-87
2021/01/15 05:34:05;;;;;;;16.17;10.73;;;1.10;99.90;;;;;;5000407;28;20030;-88
2021/01/15 05:36:31;;;;;;;16.83;10.98;;;1.10;99.90;;;;;;5000524;28;20125;-87
2021/01/15 05:39:11;;;;;;;21.20;12.45;;;1.10;99.90;;;;;;4988573;28;20030;-84
2021/01/15 05:41:38;;;;;;;15.88;11.18;;;1.10;99.90;;;;;;4988922;28;20472;-86
2021/01/15 05:44:04;;;;;;;16.38;10.88;;;1.10;99.90;;;;;;4998715;28;20032;-87
2021/01/15 05:46:30;;;;;;;17.10;11.02;;;1.10;99.90;;;;;;4997421;28;20389;-87
2021/01/15 05:49:06;;;;;;;17.70;11.93;;;1.10;99.90;;;;;;4963123;28;20046;-87
2021/01/15 05:51:33;;;;;;;17.00;10.88;;;1.10;99.90;;;;;;4988409;28;20030;-87
2021/01/15 05:54:00;;;;;;;18.30;11.63;;;1.10;99.90;;;;;;5015953;28;20077;-86
2021/01/15 05:56:36;;;;;;;16.67;11.00;;;1.10;99.90;;;;;;5015760;28;20548;-88
2021/01/15 05:59:07;;;;;;;16.73;11.15;;;1.10;99.90;;;;;;4997882;28;20125;-89
2021/01/15 06:01:40;;;;;;;19.00;11.85;;;1.10;99.90;;;;;;4999835;28;20041;-91
2021/01/15 06:04:05;;;;;;;20.03;12.07;;;1.10;99.90;;;;;;4999480;28;20040;-89
2021/01/15 06:06:32;;;;;;;18.70;11.77;;;1.10;99.90;;;;;;4999656;28;20034;-89
2021/01/15 06:09:06;;;;;;;19.58;12.15;;;1.10;99.90;;;;;;4961520;28;20031;-91
2021/01/15 06:11:36;;;;;;;19.30;13.25;;;1.10;99.90;;;;;;4963363;28;20043;-91
2021/01/15 06:14:15;;;;;;;21.75;14.10;;;1.10;99.90;;;;;;5010385;28;20034;-87
2021/01/15 06:16:41;;;;;;;21.60;14.52;;;1.10;99.90;;;;;;4985303;28;20034;-88
2021/01/15 06:19:07;;;;;;;21.75;13.57;;;1.10;99.90;;;;;;4995309;28;20065;-86
2021/01/15 06:21:34;;;;;;;17.90;11.70;;;1.10;99.90;;;;;;5016872;28;20046;-88
2021/01/15 06:24:07;;;;;;;19.65;11.48;;;1.10;99.90;;;;;;4991465;28;20109;-88
2021/01/15 06:26:43;;;;;;;17.73;11.32;;;1.10;99.90;;;;;;5000569;28;20037;-90
2021/01/15 06:29:10;;;;;;;19.35;11.75;;;1.10;99.90;;;;;;4999317;28;20042;-88
2021/01/15 06:31:46;;;;;;;18.05;11.48;;;1.10;99.90;;;;;;4995222;28;20046;-86
2021/01/15 06:34:13;;;;;;;17.52;12.05;;;1.10;99.90;;;;;;5015242;28;20038;-88
2021/01/15 06:36:54;;;;;;;19.45;11.88;;;1.20;99.90;;;;;;4962945;28;20027;-88
2021/01/15 06:39:21;;;;;;;16.50;10.65;;;1.10;99.90;;;;;;4980106;28;20034;-87
2021/01/15 06:41:59;;;;;;;20.77;12.93;;;1.10;99.90;;;;;;4963913;28;20023;-87
2021/01/15 06:44:25;;;;;;;20.80;12.65;;;1.10;99.90;;;;;;4998024;28;20058;-88
2021/01/15 06:46:53;;;;;;;23.48;14.48;;;1.20;99.90;;;;;;4999827;28;20060;-89
2021/01/15 06:49:29;;;;;;;24.10;13.27;;;1.10;99.90;;;;;;4999706;28;20070;-89
2021/01/15 06:51:56;;;;;;;21.42;12.75;;;1.10;99.90;;;;;;4999179;28;20058;-88
2021/01/15 06:54:25;;;;;;;21.83;13.68;;;1.10;99.90;;;;;;4999183;28;20057;-89
2021/01/15 06:57:10;;;;;;;25.60;14.70;;;1.10;99.90;;;;;;4999151;28;20036;-88
2021/01/15 06:59:37;;;;;;;28.42;16.90;;;1.20;99.90;;;;;;4989185;28;20050;-89
2021/01/15 07:02:12;;;;;;;20.58;13.27;;;1.10;99.90;;;;;;4983821;28;20035;-87
2021/01/15 07:04:59;;;;;;;25.23;14.40;;;1.20;99.90;;;;;;4979006;28;20034;-88
2021/01/15 07:07:29;;;;;;;21.30;13.18;;;1.20;99.90;;;;;;4979423;28;20118;-87
2021/01/15 07:09:58;;;;;;;22.83;14.05;;;1.20;99.90;;;;;;4991493;28;20045;-86
2021/01/15 07:12:24;;;;;;;23.33;14.45;;;1.10;99.90;;;;;;5000256;28;20030;-88
2021/01/15 07:14:57;;;;;;;23.63;14.10;;;1.20;99.90;;;;;;5015138;28;20034;-88
2021/01/15 07:17:37;;;;;;;23.85;15.00;;;1.20;99.90;;;;;;4990937;28;20026;-89
2021/01/15 07:20:07;;;;;;;22.83;14.13;;;1.20;99.90;;;;;;4980136;28;20053;-87
2021/01/15 07:23:07;;;;;;;21.73;13.52;;;1.20;99.90;;;;;;4997867;28;20030;-86
2021/01/15 07:25:33;;;;;;;22.05;13.85;;;1.20;99.90;;;;;;4991683;28;20034;-87
2021/01/15 07:27:58;;;;;;;23.13;13.15;;;1.20;99.90;;;;;;4986276;28;20030;-88
2021/01/15 07:30:29;;;;;;;21.90;14.05;;;1.20;99.90;;;;;;4978986;28;20057;-88
2021/01/15 07:32:56;;;;;;;25.63;14.57;;;1.20;99.90;;;;;;4964767;28;20076;-88
2021/01/15 07:35:27;;;;;;;23.77;13.82;;;1.20;99.90;;;;;;4979365;28;20472;-88
2021/01/15 07:38:12;;;;;;;23.92;14.48;;;1.20;99.90;;;;;;4981627;28;20030;-86
2021/01/15 07:40:39;;;;;;;22.02;13.13;;;1.20;99.90;;;;;;4998594;28;20494;-88
2021/01/15 07:43:07;;;;;;;22.40;13.68;;;1.20;99.90;;;;;;4997980;28;20113;-87
2021/01/15 07:45:43;;;;;;;23.70;13.38;;;1.20;99.90;;;;;;4997489;28;20040;-86
2021/01/15 07:48:09;;;;;;;21.58;13.60;;;1.20;99.90;;;;;;4996766;28;20062;-87
2021/01/15 07:50:41;;;;;;;21.10;12.70;;;1.20;99.90;;;;;;4995694;28;20474;-87
2021/01/15 07:53:12;;;;;;;20.15;11.85;;;1.30;99.90;;;;;;4996535;28;20090;-90
2021/01/15 07:55:48;;;;;;;19.35;12.13;;;1.30;99.90;;;;;;4980371;28;20034;-89
2021/01/15 07:58:16;;;;;;;21.92;13.27;;;1.30;99.90;;;;;;4978564;28;20030;-86
2021/01/15 08:00:42;;;;;;;20.20;12.32;;;1.30;99.90;;;;;;4962509;28;20065;-88
2021/01/15 08:03:10;;;;;;;20.27;11.75;;;1.30;99.90;;;;;;4987283;28;20391;-88
2021/01/15 08:05:35;;;;;;;21.13;12.40;;;1.30;99.90;;;;;;5000864;28;20377;-88
2021/01/15 08:08:09;;;;;;;18.98;11.38;;;1.30;99.90;;;;;;4990191;28;20058;-89
2021/01/15 08:10:45;;;;;;;17.55;11.25;;;1.30;99.90;;;;;;4985765;28;20038;-88
2021/01/15 08:13:29;;;;;;;19.92;12.20;;;1.30;99.90;;;;;;4985874;28;20034;-90
2021/01/15 08:15:56;;;;;;;20.48;12.57;;;1.30;99.90;;;;;;4986080;28;20062;-90
2021/01/15 08:18:23;;;;;;;20.02;11.55;;;1.30;99.90;;;;;;4985030;28;20034;-91
2021/01/15 08:20:51;;;;;;;21.40;13.07;;;1.30;99.90;;;;;;4985207;28;20030;-90
2021/01/15 08:23:27;;;;;;;19.45;11.20;;;1.40;99.90;;;;;;4985380;28;20041;-90
2021/01/15 08:26:00;;;;;;;20.70;11.80;;;1.40;99.90;;;;;;4986333;28;20046;-88
2021/01/15 08:28:26;;;;;;;20.50;12.55;;;1.40;99.90;;;;;;4985795;28;20042;-89
2021/01/15 08:31:08;;;;;;;19.27;11.82;;;1.40;99.90;;;;;;5006806;28;20045;-89
2021/01/15 08:33:34;;;;;;;17.63;10.68;;;1.40;99.90;;;;;;5005023;28;20056;-91
2021/01/15 08:36:02;;;;;;;18.80;10.80;;;1.40;99.90;;;;;;5017575;28;20073;-89
2021/01/15 08:38:36;;;;;;;17.88;10.07;;;1.40;99.90;;;;;;4982658;28;20035;-91
2021/01/15 08:43:39;;;;;;;17.48;10.43;;;1.50;99.90;;;;;;5043379;23;20045;-89
2021/01/15 08:46:05;;;;;;;20.30;11.50;;;1.50;99.90;;;;;;5016721;28;20049;-88
2021/01/15 08:48:31;;;;;;;18.52;10.63;;;1.50;99.90;;;;;;5016374;28;20069;-88
2021/01/15 08:51:07;;;;;;;18.30;11.50;;;1.50;99.90;;;;;;5016696;28;20041;-88
2021/01/15 08:53:43;;;;;;;17.98;10.77;;;1.50;99.90;;;;;;5016085;28;20034;-88
2021/01/15 08:56:12;;;;;;;17.27;10.32;;;1.50;99.90;;;;;;5020255;28;20029;-88
2021/01/15 08:58:48;;;;;;;15.57;10.15;;;1.50;99.90;;;;;;5022071;28;20040;-89
2021/01/15 09:01:26;;;;;;;16.42;9.70;;;1.50;99.90;;;;;;5015417;28;20025;-89
2021/01/15 09:03:56;;;;;;;19.27;11.73;;;1.50;99.90;;;;;;5013000;28;20046;-88
2021/01/15 09:06:23;;;;;;;16.92;10.18;;;1.50;99.90;;;;;;5005723;28;20472;-89
2021/01/15 09:08:54;;;;;;;17.38;10.93;;;1.50;99.90;;;;;;5005559;28;20037;-89
2021/01/15 09:11:29;;;;;;;16.65;10.15;;;1.60;99.90;;;;;;4988049;28;20058;-89
2021/01/15 09:13:56;;;;;;;22.10;12.55;;;1.50;99.90;;;;;;5011660;28;20038;-89
2021/01/15 09:16:24;;;;;;;20.85;13.27;;;1.60;99.90;;;;;;5024926;28;20080;-88
2021/01/15 09:18:51;;;;;;;18.65;12.13;;;1.60;99.90;;;;;;4985802;28;20030;-89
2021/01/15 09:21:17;;;;;;;21.02;12.00;;;1.60;99.90;;;;;;5014841;28;20034;-91
2021/01/15 09:23:43;;;;;;;19.35;11.93;;;1.60;99.90;;;;;;5025435;28;20104;-91
2021/01/15 09:26:10;;;;;;;18.73;11.63;;;1.60;99.90;;;;;;5029117;28;20029;-87
2021/01/15 09:28:36;;;;;;;17.40;11.20;;;1.60;99.90;;;;;;5020369;28;20029;-88
2021/01/15 09:31:04;;;;;;;18.00;11.52;;;1.60;99.90;;;;;;5024934;28;20034;-87
2021/01/15 09:33:30;;;;;;;18.15;10.20;;;1.60;99.90;;;;;;5023309;28;20029;-88
2021/01/15 09:35:56;;;;;;;17.10;10.43;;;1.60;99.90;;;;;;5025690;28;20041;-91
2021/01/15 09:38:22;;;;;;;17.25;11.15;;;1.60;99.90;;;;;;5011130;28;20026;-91
2021/01/15 09:40:53;;;;;;;16.17;9.95;;;1.60;99.90;;;;;;5021560;28;20029;-90
2021/01/15 09:43:20;;;;;;;16.45;10.20;;;1.70;99.90;;;;;;5021705;28;20037;-89
2021/01/15 09:45:46;;;;;;;16.08;10.15;;;1.60;99.90;;;;;;5025544;28;20464;-89
2021/01/15 09:48:15;;;;;;;15.25;10.13;;;1.70;99.90;;;;;;5026554;28;20056;-89
2021/01/15 09:50:40;;;;;;;17.33;9.60;;;1.70;99.90;;;;;;5033848;28;20056;-88
2021/01/15 09:53:06;;;;;;;17.60;10.35;;;1.70;99.90;;;;;;5043412;28;20021;-90
2021/01/15 09:55:33;;;;;;;15.85;8.85;;;1.80;99.90;;;;;;5031450;28;20029;-90
2021/01/15 09:57:59;;;;;;;15.68;9.23;;;1.80;99.90;;;;;;5029013;28;20046;-89
2021/01/15 10:00:25;;;;;;;15.77;10.05;;;1.80;99.90;;;;;;5027159;28;20561;-89
2021/01/15 10:02:51;;;;;;;13.73;8.95;;;1.80;99.90;;;;;;5027146;28;20107;-88
2021/01/15 10:05:17;;;;;;;16.23;9.85;;;1.80;99.90;;;;;;5022517;28;20046;-91
2021/01/15 10:07:42;;;;;;;19.85;11.20;;;1.80;99.90;;;;;;5023160;28;20036;-89
2021/01/15 10:10:12;;;;;;;18.98;11.90;;;1.80;99.90;;;;;;5005960;28;20053;-89
2021/01/15 10:18:15;;;;;;;15.40;9.05;;;1.90;99.90;;;;;;5253822;23;20114;-89
2021/01/15 10:20:45;;;;;;;17.08;9.57;;;2.00;99.90;;;;;;5017194;28;20467;-91
2021/01/15 10:23:11;;;;;;;15.23;9.60;;;1.90;99.90;;;;;;5017027;28;20030;-91
2021/01/15 10:25:37;;;;;;;15.13;9.73;;;2.00;99.90;;;;;;5008367;28;20022;-91
2021/01/15 10:28:03;;;;;;;14.80;9.45;;;1.90;99.90;;;;;;5007084;28;20029;-91
2021/01/15 10:30:30;;;;;;;14.25;9.00;;;2.00;99.90;;;;;;5006362;28;20117;-91
2021/01/15 10:32:56;;;;;;;14.15;9.00;;;2.00;99.90;;;;;;5008356;28;20049;-89
2021/01/15 10:35:22;;;;;;;13.00;8.73;;;2.00;99.90;;;;;;5023661;28;20045;-90
2021/01/15 10:37:47;;;;;;;15.45;8.63;;;2.00;99.90;;;;;;5014673;28;20029;-86
2021/01/15 10:40:13;;;;;;;14.15;8.48;;;2.00;99.90;;;;;;5005368;28;20033;-90
2021/01/15 10:43:07;;;;;;;17.67;11.05;;;2.10;99.90;;;;;;5006277;28;20034;-94
2021/01/15 10:48:38;;;;;;;15.45;9.32;;;2.10;99.90;;;;;;5101675;23;20049;-95
2021/01/15 10:51:08;;;;;;;13.13;8.43;;;2.10;99.90;;;;;;5167773;23;20053;-93
2021/01/15 10:54:35;;;;;;;13.55;9.02;;;2.10;99.90;;;;;;5042491;28;20041;-93
2021/01/15 11:19:03;;;;;;;14.02;9.02;;;2.20;99.90;;;;;;5056474;28;20068;-90
2021/01/15 11:21:31;;;;;;;14.95;9.05;;;2.20;99.90;;;;;;5040349;28;20123;-90
2021/01/15 11:23:57;;;;;;;14.48;10.20;;;2.10;99.90;;;;;;5040964;28;20641;-90
2021/01/15 11:26:30;;;;;;;14.88;9.40;;;2.10;99.90;;;;;;5039605;28;20029;-88
2021/01/15 11:29:29;;;;;;;15.65;10.02;;;2.20;99.90;;;;;;5057204;28;20674;-91
2021/01/15 11:35:10;;;;;;;14.13;9.25;;;2.20;99.90;;;;;;4973145;28;20042;-91
2021/01/15 11:37:39;;;;;;;15.18;9.45;;;2.20;99.90;;;;;;5073742;28;20028;-90
2021/01/15 11:40:07;;;;;;;15.93;9.75;;;2.20;99.90;;;;;;5038699;28;20037;-90
2021/01/15 11:42:38;;;;;;;15.45;10.05;;;2.20;99.90;;;;;;5039288;28;20450;-92
2021/01/15 11:45:16;;;;;;;17.40;11.30;;;2.20;99.90;;;;;;5038048;28;20037;-91
2021/01/15 11:50:13;;;;;;;19.92;12.45;;;2.20;99.90;;;;;;5088303;22;20122;-93
2021/01/15 11:53:27;;;;;;;16.63;9.93;;;2.10;99.90;;;;;;5043240;28;20033;-94
2021/01/15 11:56:08;;;;;;;15.15;9.95;;;2.10;99.90;;;;;;5039819;28;20029;-95
2021/01/15 12:08:56;;;;;;;14.60;9.73;;;2.10;99.90;;;;;;5082344;22;20076;-93
2021/01/15 12:11:22;;;;;;;16.20;10.25;;;2.10;99.90;;;;;;5025167;28;20051;-94
2021/01/15 12:16:52;;;;;;;;;;;;;;;;;;;;;
2021/01/15 12:26:49;;;;;;;16.27;10.23;;;2.10;99.90;;;;;;5028812;28;20048;-95
2021/01/15 12:35:28;;;;;;;15.52;10.70;;;2.10;99.90;;;;;;5050291;23;20057;-90
2021/01/15 12:38:16;;;;;;;13.98;9.73;;;2.20;99.90;;;;;;5124447;22;20507;-91
2021/01/15 12:40:42;;;;;;;15.93;10.45;;;2.20;99.90;;;;;;4988688;28;20050;-93
2021/01/15 12:48:17;;;;;;;16.00;11.48;;;2.30;99.90;;;;;;5061901;28;20462;-90
2021/01/15 12:50:59;;;;;;;17.25;10.75;;;2.30;99.90;;;;;;5045753;28;20513;-89
2021/01/15 12:53:33;;;;;;;19.83;12.57;;;2.30;99.90;;;;;;5040216;28;20041;-94
2021/01/15 12:56:01;;;;;;;17.08;11.80;;;2.30;99.90;;;;;;5048106;28;20170;-90
2021/01/15 12:58:27;;;;;;;19.42;12.23;;;2.30;99.90;;;;;;5037872;28;20060;-90
2021/01/15 13:30:23;;;;;;;16.65;11.02;;;2.40;99.90;;;;;;5048169;28;20053;-91
2021/01/15 13:33:00;;;;;;;19.33;13.07;;;2.50;99.90;;;;;;5030915;28;20132;-92
2021/01/15 13:35:28;;;;;;;16.67;11.43;;;2.40;99.90;;;;;;5029360;28;20041;-92
2021/01/15 13:37:54;;;;;;;17.38;11.07;;;2.40;99.90;;;;;;5029987;28;20026;-92
2021/01/15 13:40:27;;;;;;;18.40;11.57;;;2.50;99.90;;;;;;5032529;28;20037;-91
2021/01/15 13:42:59;;;;;;;15.70;11.35;;;2.50;99.90;;;;;;5030906;28;20065;-89
2021/01/15 13:45:53;;;;;;;16.75;10.15;;;2.40;99.90;;;;;;5066417;23;20060;-94
2021/01/15 13:48:38;;;;;;;;;;;;;;;;;;;;;
2021/01/15 13:52:05;;;;;;;;;;;;;;;;;;;;;
2021/01/15 13:54:56;;;;;;;17.77;12.00;;;2.40;99.90;;;;;;4912057;29;20222;-94
2021/01/15 13:58:17;;;;;;;;;;;;;;;;;;;;;
2021/01/15 14:01:06;;;;;;;17.15;11.73;;;2.40;99.90;;;;;;4925174;29;20151;-95
2021/01/15 14:04:24;;;;;;;;;;;;;;;;;;;;;
2021/01/15 14:20:48;;;;;;;16.48;11.07;;;2.40;99.90;;;;;;4818391;29;20072;-95
2021/01/15 14:34:15;;;;;;;17.55;11.63;;;2.30;99.90;;;;;;4727904;30;20748;-94
2021/01/15 14:38:03;;;;;;;17.10;11.15;;;2.30;99.90;;;;;;4736347;30;20052;-95
2021/01/15 14:41:26;;;;;;;18.92;11.32;;;2.30;99.90;;;;;;4718718;30;20824;-95
2021/01/15 14:44:58;;;;;;;17.23;11.95;;;2.30;99.90;;;;;;4681944;30;20514;-95
2021/01/15 14:48:07;;;;;;;18.48;11.52;;;2.30;99.90;;;;;;4656004;30;20063;-95
2021/01/15 14:51:29;;;;;;;;;;;;;;;;;;;;;
2021/01/15 15:04:27;;;;;;;;;;;;;;;;;;;;;
2021/01/15 15:14:34;;;;;;;;;;;2.20;99.90;;;;;;4724688;30;20045;-94
2021/01/15 15:18:03;;;;;;;16.10;10.10;;;2.20;99.90;;;;;;4759906;30;19914;-94
2021/01/15 15:27:47;;;;;;;17.33;10.68;;;2.20;99.90;;;;;;4760756;30;20047;-94
2021/01/15 15:30:56;;;;;;;;;;;;;;;;;;;;;
2021/01/15 15:34:00;;;;;;;13.07;8.48;;;2.20;99.90;;;;;;4792367;29;20039;-94
2021/01/15 15:36:44;;;;;;;;;;;;;;;;;;;;;
2021/01/15 15:39:45;;;;;;;;;;;;;;;;;;;;;
2021/01/15 15:42:36;;;;;;;16.08;10.00;;;2.20;99.90;;;;;;5000493;28;20037;-94
2021/01/15 15:45:40;;;;;;;;;;;;;;;;;;;;;
2021/01/15 15:52:16;;;;;;;;;;;;;;;;;;;;;
2021/01/15 15:54:49;;;;;;;13.40;7.75;;;2.10;99.90;;;;;;4961740;28;20096;-92
2021/01/15 15:57:48;;;;;;;13.52;8.20;;;2.10;99.90;;;;;;4975641;28;20038;-95
2021/01/15 16:00:57;;;;;;;13.70;8.63;;;2.10;99.90;;;;;;4959486;28;20046;-94